Time;durP1;ratioP1;P1;durP2;ratioP2;P2;SDS_P1;SDS_P2;PMS_P1;PMS_P2;Temp;Humidity;BMP_temperature;BMP_pressure;BME280_temperature;BME280_humidity;BME280_pressure;Samples;Min_cycle;Max_cycle;Signal;HPM_P1;HPM_P2
2022/10/10 00:01:19;;;;;;;1.10;1.00;;;20.20;61.20;;;;;;5107436;27;43430;-57
2022/10/10 00:03:47;;;;;;;0.90;0.90;;;20.20;61.20;;;;;;5107708;27;43591;-57
2022/10/10 00:06:15;;;;;;;1.73;1.00;;;20.20;61.20;;;;;;5110992;27;45330;-57
2022/10/10 00:08:44;;;;;;;2.67;1.10;;;20.20;61.20;;;;;;5106872;27;44122;-57
2022/10/10 00:11:13;;;;;;;0.73;0.73;;;20.20;61.20;;;;;;5089110;27;43448;-57
2022/10/10 00:13:41;;;;;;;1.05;0.95;;;20.20;61.30;;;;;;5107365;27;43654;-57
2022/10/10 00:16:09;;;;;;;0.90;0.90;;;20.10;61.20;;;;;;5109988;27;44200;-56
2022/10/10 00:18:38;;;;;;;0.90;0.90;;;20.10;61.20;;;;;;5111514;27;43505;-57
2022/10/10 00:21:05;;;;;;;1.52;1.08;;;20.10;61.20;;;;;;5114943;27;43449;-57
2022/10/10 00:23:33;;;;;;;1.50;1.40;;;20.10;61.20;;;;;;5106604;27;43489;-57
2022/10/10 00:26:01;;;;;;;0.93;0.93;;;20.10;61.20;;;;;;5110057;27;43821;-57
2022/10/10 00:28:37;;;;;;;1.30;1.20;;;20.10;61.30;;;;;;5088684;27;43392;-57
2022/10/10 00:31:07;;;;;;;1.08;1.08;;;20.10;61.20;;;;;;5088752;27;43350;-57
2022/10/10 00:33:36;;;;;;;1.00;0.90;;;20.10;61.30;;;;;;5108565;27;43502;-57
2022/10/10 00:36:04;;;;;;;1.15;1.13;;;20.10;61.30;;;;;;5107600;27;43940;-56
2022/10/10 00:38:32;;;;;;;0.80;0.70;;;20.10;61.20;;;;;;5106406;27;43415;-57
2022/10/10 00:41:00;;;;;;;1.17;1.08;;;20.00;61.20;;;;;;5107442;27;43455;-57
2022/10/10 00:43:29;;;;;;;1.08;1.08;;;20.00;61.20;;;;;;5122511;27;43568;-57
2022/10/10 00:45:56;;;;;;;1.20;1.10;;;20.00;61.30;;;;;;5106843;27;44786;-57
2022/10/10 00:48:38;;;;;;;2.20;1.08;;;20.00;61.30;;;;;;5106805;27;43931;-57
2022/10/10 00:51:13;;;;;;;1.70;1.05;;;20.00;61.30;;;;;;5106812;27;43383;-57
2022/10/10 00:53:45;;;;;;;1.00;0.90;;;20.00;61.40;;;;;;5105638;27;43407;-57
2022/10/10 00:56:14;;;;;;;1.10;1.00;;;20.00;61.30;;;;;;5109911;27;43916;-57
2022/10/10 00:58:46;;;;;;;0.90;0.88;;;20.00;61.40;;;;;;5106105;27;43970;-57
2022/10/10 01:01:14;;;;;;;0.90;0.90;;;20.00;61.30;;;;;;5109412;27;43401;-57
2022/10/10 01:03:41;;;;;;;0.80;0.80;;;19.90;61.30;;;;;;5101705;27;43399;-57
2022/10/10 01:06:10;;;;;;;0.90;0.90;;;19.90;61.30;;;;;;5115208;27;44924;-57
2022/10/10 01:08:37;;;;;;;1.15;1.05;;;19.90;61.40;;;;;;5109417;27;44138;-57
2022/10/10 01:11:33;;;;;;;1.00;1.00;;;19.90;61.40;;;;;;5113141;27;43402;-57
2022/10/10 01:14:06;;;;;;;1.33;1.20;;;19.90;61.40;;;;;;5116044;27;43501;-57
2022/10/10 01:16:39;;;;;;;0.90;0.90;;;19.90;61.40;;;;;;5109477;27;44148;-57
2022/10/10 01:19:25;;;;;;;0.80;0.80;;;19.90;61.40;;;;;;5114473;27;43526;-57
2022/10/10 01:22:29;;;;;;;0.82;0.82;;;19.90;61.30;;;;;;5109977;27;44035;-57
2022/10/10 01:25:15;;;;;;;0.82;0.82;;;19.90;61.40;;;;;;5110132;27;43592;-57
2022/10/10 01:27:54;;;;;;;0.93;0.93;;;19.80;61.30;;;;;;5109609;27;43886;-57
2022/10/10 01:30:23;;;;;;;0.88;0.88;;;19.80;61.30;;;;;;5109750;27;43481;-57
2022/10/10 01:33:04;;;;;;;1.10;1.00;;;19.80;61.40;;;;;;5109807;27;43413;-57
2022/10/10 01:36:03;;;;;;;1.20;1.10;;;19.80;61.40;;;;;;5108931;27;43585;-57
2022/10/10 01:38:39;;;;;;;0.98;0.98;;;19.80;61.40;;;;;;5093267;27;45030;-57
2022/10/10 01:41:17;;;;;;;1.52;1.00;;;19.80;61.40;;;;;;5107319;27;43487;-57
2022/10/10 01:43:44;;;;;;;1.20;1.00;;;19.80;61.50;;;;;;5110202;27;43546;-57
2022/10/10 01:46:17;;;;;;;0.88;0.88;;;19.80;61.50;;;;;;5109467;27;43430;-57
2022/10/10 01:48:49;;;;;;;0.95;0.95;;;19.70;61.40;;;;;;5111110;27;44799;-57
2022/10/10 01:51:34;;;;;;;1.17;1.08;;;19.70;61.40;;;;;;5109308;27;43487;-57
2022/10/10 01:54:26;;;;;;;1.20;1.10;;;19.70;61.40;;;;;;5110234;27;43353;-57
2022/10/10 01:57:13;;;;;;;1.20;1.10;;;19.70;61.40;;;;;;5109357;27;43567;-57
2022/10/10 01:59:52;;;;;;;1.20;1.02;;;19.70;61.40;;;;;;5109010;27;44757;-57
2022/10/10 02:02:38;;;;;;;0.90;0.90;;;19.70;61.40;;;;;;5109352;27;43443;-57
2022/10/10 02:05:15;;;;;;;0.98;0.98;;;19.70;61.40;;;;;;5109599;27;43412;-57
2022/10/10 02:07:57;;;;;;;0.93;0.93;;;19.70;61.40;;;;;;5108777;27;43553;-57
2022/10/10 02:10:32;;;;;;;0.80;0.80;;;19.70;61.40;;;;;;5111421;27;44013;-57
2022/10/10 02:13:01;;;;;;;1.10;1.08;;;19.60;61.40;;;;;;5122549;27;44051;-57
2022/10/10 02:15:35;;;;;;;1.25;1.15;;;19.60;61.40;;;;;;5112800;27;43529;-57
2022/10/10 02:18:06;;;;;;;1.10;1.10;;;19.60;61.40;;;;;;5122622;27;43568;-57
2022/10/10 02:20:34;;;;;;;1.10;1.10;;;19.60;61.40;;;;;;5109202;27;44698;-57
2022/10/10 02:23:04;;;;;;;0.90;0.90;;;19.60;61.40;;;;;;5090090;27;43451;-58
2022/10/10 02:25:38;;;;;;;1.05;1.05;;;19.60;61.40;;;;;;5108942;27;43462;-57
2022/10/10 02:28:32;;;;;;;1.10;1.00;;;19.60;61.40;;;;;;5111252;27;43401;-58
2022/10/10 02:31:04;;;;;;;1.00;1.00;;;19.60;61.40;;;;;;5096131;27;44969;-57
2022/10/10 02:33:48;;;;;;;1.38;0.93;;;19.60;61.40;;;;;;5110207;27;43517;-57
2022/10/10 02:36:18;;;;;;;0.82;0.82;;;19.60;61.40;;;;;;5108168;27;43406;-57
2022/10/10 02:38:47;;;;;;;1.33;1.20;;;19.60;61.50;;;;;;5108809;27;43458;-57
2022/10/10 02:41:17;;;;;;;0.98;0.90;;;19.60;61.40;;;;;;5111647;27;43803;-57
2022/10/10 02:43:45;;;;;;;1.17;1.08;;;19.50;61.40;;;;;;5123461;27;43381;-57
2022/10/10 02:46:13;;;;;;;1.05;1.05;;;19.50;61.40;;;;;;5089555;27;44065;-57
2022/10/10 02:48:41;;;;;;;0.80;0.80;;;19.60;61.40;;;;;;5108435;27;43535;-57
2022/10/10 02:51:11;;;;;;;0.90;0.90;;;19.50;61.40;;;;;;5090934;27;44791;-58
2022/10/10 02:53:38;;;;;;;1.30;1.20;;;19.50;61.40;;;;;;5109671;27;43494;-57
2022/10/10 02:56:06;;;;;;;1.10;1.10;;;19.50;61.40;;;;;;5115024;27;43396;-57
2022/10/10 02:58:34;;;;;;;1.00;1.00;;;19.50;61.40;;;;;;5107757;27;43546;-58
2022/10/10 03:01:01;;;;;;;1.33;0.80;;;19.50;61.30;;;;;;5109439;27;44694;-57
2022/10/10 03:03:29;;;;;;;1.25;1.00;;;19.50;61.40;;;;;;5109544;27;43464;-57
2022/10/10 03:05:56;;;;;;;0.90;0.90;;;19.50;61.40;;;;;;5108321;27;43454;-57
2022/10/10 03:08:24;;;;;;;0.90;0.90;;;19.50;61.40;;;;;;5108485;27;43525;-57
2022/10/10 03:11:01;;;;;;;0.93;0.93;;;19.50;61.40;;;;;;5090659;27;45078;-57
2022/10/10 03:13:28;;;;;;;0.80;0.80;;;19.50;61.40;;;;;;5108098;27;43989;-57
2022/10/10 03:15:56;;;;;;;0.98;0.98;;;19.40;61.40;;;;;;5090185;27;43506;-58
2022/10/10 03:18:23;;;;;;;1.20;1.10;;;19.40;61.40;;;;;;5111010;27;43581;-57
2022/10/10 03:20:53;;;;;;;1.20;1.00;;;19.40;61.40;;;;;;5107794;27;44950;-57
2022/10/10 03:23:22;;;;;;;0.90;0.90;;;19.40;61.40;;;;;;5108089;27;43385;-57
2022/10/10 03:25:49;;;;;;;1.00;1.00;;;19.40;61.50;;;;;;5107649;27;43403;-57
2022/10/10 03:28:17;;;;;;;1.15;1.05;;;19.40;61.50;;;;;;5105886;27;43470;-57
2022/10/10 03:30:45;;;;;;;1.23;1.13;;;19.40;61.50;;;;;;5111357;27;45011;-57
2022/10/10 03:33:12;;;;;;;1.20;0.90;;;19.40;61.50;;;;;;5107682;27;43404;-57
2022/10/10 03:35:40;;;;;;;1.05;1.00;;;19.40;61.40;;;;;;5109429;27;43391;-57
2022/10/10 03:38:07;;;;;;;0.95;0.93;;;19.40;61.50;;;;;;5108250;27;43494;-57
2022/10/10 03:40:39;;;;;;;0.90;0.90;;;19.40;61.50;;;;;;5110384;27;43980;-57
2022/10/10 03:43:09;;;;;;;0.80;0.80;;;19.40;61.50;;;;;;5113318;27;43476;-58
2022/10/10 03:45:37;;;;;;;0.95;0.95;;;19.30;61.40;;;;;;5106298;27;43379;-59
2022/10/10 03:48:04;;;;;;;1.20;1.10;;;19.30;61.50;;;;;;5107767;27;43534;-57
2022/10/10 03:50:32;;;;;;;1.00;1.00;;;19.30;61.50;;;;;;5110262;27;44987;-58
2022/10/10 03:52:59;;;;;;;1.00;1.00;;;19.30;61.50;;;;;;5107412;27;44029;-57
2022/10/10 03:55:27;;;;;;;1.20;1.10;;;19.30;61.40;;;;;;5114826;27;43453;-57
2022/10/10 03:57:54;;;;;;;0.90;0.90;;;19.30;61.50;;;;;;5111624;27;43514;-57
2022/10/10 04:00:22;;;;;;;0.98;0.90;;;19.30;61.50;;;;;;5109762;27;44131;-57
2022/10/10 04:02:49;;;;;;;1.05;1.05;;;19.30;61.50;;;;;;5107114;27;43891;-57
2022/10/10 04:05:17;;;;;;;1.00;1.00;;;19.30;61.50;;;;;;5107354;27;43379;-57
2022/10/10 04:07:44;;;;;;;1.17;1.00;;;19.30;61.60;;;;;;5107258;27;43533;-57
2022/10/10 04:10:12;;;;;;;0.80;0.80;;;19.30;61.50;;;;;;5110567;27;44989;-58
2022/10/10 04:12:39;;;;;;;0.90;0.90;;;19.30;61.60;;;;;;5107021;27;43970;-57
2022/10/10 04:15:07;;;;;;;1.20;1.10;;;19.20;61.50;;;;;;5106707;27;43402;-57
2022/10/10 04:17:35;;;;;;;1.08;1.05;;;19.20;61.50;;;;;;5106852;27;43485;-57
2022/10/10 04:20:03;;;;;;;1.10;1.00;;;19.20;61.50;;;;;;5119380;27;44031;-57
2022/10/10 04:22:30;;;;;;;1.20;1.20;;;19.20;61.60;;;;;;5106390;27;43492;-57
2022/10/10 04:24:58;;;;;;;0.90;0.90;;;19.20;61.60;;;;;;5107055;27;43438;-57
2022/10/10 04:27:26;;;;;;;1.00;1.00;;;19.20;61.60;;;;;;5104570;27;43470;-57
2022/10/10 04:29:53;;;;;;;1.00;1.00;;;19.20;61.60;;;;;;5109366;27;45145;-57
2022/10/10 04:32:20;;;;;;;0.80;0.80;;;19.20;61.50;;;;;;5106829;27;43505;-57
2022/10/10 04:34:48;;;;;;;1.20;1.10;;;19.20;61.60;;;;;;5106801;27;43417;-57
2022/10/10 04:37:15;;;;;;;0.90;0.90;;;19.20;62.00;;;;;;5107145;27;43519;-58
2022/10/10 04:39:43;;;;;;;1.30;1.20;;;19.20;61.60;;;;;;5111176;27;44049;-57
2022/10/10 04:42:10;;;;;;;1.38;1.27;;;19.20;61.60;;;;;;5116881;27;43478;-57
2022/10/10 04:44:38;;;;;;;1.10;1.10;;;19.20;61.60;;;;;;5117233;27;43708;-57
2022/10/10 04:47:06;;;;;;;1.17;1.13;;;19.10;61.50;;;;;;5106733;27;43504;-58
2022/10/10 04:49:33;;;;;;;0.90;0.90;;;19.20;61.60;;;;;;5101381;27;43752;-57
2022/10/10 04:52:00;;;;;;;1.00;1.00;;;19.10;61.60;;;;;;5106183;27;45057;-57
2022/10/10 04:54:28;;;;;;;1.05;1.00;;;19.10;62.20;;;;;;5106231;27;43419;-57
2022/10/10 04:56:55;;;;;;;0.80;0.80;;;19.10;61.60;;;;;;5102693;27;43485;-57
2022/10/10 04:59:23;;;;;;;0.98;0.90;;;19.10;61.50;;;;;;5106010;27;44046;-57
2022/10/10 05:01:50;;;;;;;0.90;0.90;;;19.10;61.60;;;;;;5102971;27;43639;-57
2022/10/10 05:04:18;;;;;;;1.23;0.90;;;19.10;61.60;;;;;;5102007;27;43497;-57
2022/10/10 05:06:45;;;;;;;1.25;1.20;;;19.10;61.60;;;;;;5090981;27;43620;-57
2022/10/10 05:09:12;;;;;;;1.30;1.20;;;19.10;61.60;;;;;;5104110;27;45021;-57
2022/10/10 05:11:40;;;;;;;1.95;1.10;;;19.10;61.60;;;;;;5101981;27;44070;-57
2022/10/10 05:14:08;;;;;;;0.90;0.90;;;19.10;61.60;;;;;;5106156;27;43409;-57
2022/10/10 05:16:36;;;;;;;1.60;1.20;;;19.00;61.60;;;;;;5105493;27;43623;-57
2022/10/10 05:19:03;;;;;;;1.60;1.50;;;19.00;61.60;;;;;;5100399;27;45293;-57
2022/10/10 05:21:31;;;;;;;0.98;0.90;;;19.00;61.60;;;;;;5105370;27;43833;-57
2022/10/10 05:23:58;;;;;;;1.30;1.20;;;19.00;61.70;;;;;;5098746;27;43354;-57
2022/10/10 05:26:26;;;;;;;1.40;1.30;;;19.00;61.70;;;;;;5104669;27;43596;-58
2022/10/10 05:28:54;;;;;;;1.15;1.15;;;19.00;61.80;;;;;;5105212;27;44714;-57
2022/10/10 05:31:21;;;;;;;1.23;1.10;;;19.00;61.70;;;;;;5105218;27;43549;-57
2022/10/10 05:33:49;;;;;;;1.30;1.20;;;19.00;61.60;;;;;;5105144;27;43342;-57
2022/10/10 05:36:16;;;;;;;1.10;1.10;;;19.00;61.60;;;;;;5104229;27;43531;-57
2022/10/10 05:38:44;;;;;;;1.95;1.20;;;19.00;61.60;;;;;;5102594;27;43829;-57
2022/10/10 05:41:11;;;;;;;1.10;1.00;;;18.90;61.50;;;;;;5105166;27;43573;-57
2022/10/10 05:43:39;;;;;;;1.27;1.15;;;19.00;61.60;;;;;;5101590;27;43429;-57
2022/10/10 05:46:06;;;;;;;1.20;1.10;;;18.90;61.50;;;;;;5106941;27;43601;-57
2022/10/10 05:48:34;;;;;;;0.98;0.98;;;18.90;61.40;;;;;;5115991;27;45142;-57
2022/10/10 05:51:01;;;;;;;1.35;1.25;;;18.90;61.40;;;;;;5117660;27;43539;-57
2022/10/10 05:53:29;;;;;;;1.00;1.00;;;18.90;61.40;;;;;;5124934;27;43433;-57
2022/10/10 05:55:59;;;;;;;1.33;1.20;;;19.00;61.40;;;;;;5114441;27;43617;-57
2022/10/10 05:58:26;;;;;;;1.50;1.15;;;18.90;61.40;;;;;;5116558;27;43747;-57
2022/10/10 06:00:53;;;;;;;1.35;1.30;;;18.90;61.40;;;;;;5119976;27;43408;-57
2022/10/10 06:03:21;;;;;;;1.15;1.15;;;19.00;61.40;;;;;;5116384;27;43470;-58
2022/10/10 06:05:51;;;;;;;1.23;1.15;;;18.90;61.40;;;;;;5122435;27;43427;-57
2022/10/10 06:08:19;;;;;;;1.40;1.30;;;18.90;61.40;;;;;;5112032;27;45014;-57
2022/10/10 06:10:47;;;;;;;1.48;1.38;;;18.90;61.60;;;;;;5118703;27;43968;-58
2022/10/10 06:13:16;;;;;;;1.42;1.33;;;18.90;61.60;;;;;;5116058;27;43543;-57
2022/10/10 06:15:51;;;;;;;1.10;1.10;;;18.90;61.70;;;;;;5125210;27;43430;-57
2022/10/10 06:18:18;;;;;;;1.60;1.42;;;18.90;61.70;;;;;;5111975;27;44984;-57
2022/10/10 06:20:46;;;;;;;1.40;1.30;;;18.90;61.70;;;;;;5116469;27;43488;-57
2022/10/10 06:23:13;;;;;;;1.60;1.50;;;18.90;61.80;;;;;;5123855;27;43394;-57
2022/10/10 06:25:41;;;;;;;1.33;1.23;;;18.90;61.80;;;;;;5112454;27;43605;-57
2022/10/10 06:28:10;;;;;;;1.30;1.20;;;18.80;61.80;;;;;;5093759;27;44116;-57
2022/10/10 06:30:42;;;;;;;1.48;1.30;;;18.90;61.90;;;;;;5117014;27;43959;-57
2022/10/10 06:33:11;;;;;;;1.35;1.25;;;18.90;61.80;;;;;;5124573;27;43485;-57
2022/10/10 06:35:43;;;;;;;1.23;1.15;;;18.90;61.90;;;;;;5112134;27;43612;-57
2022/10/10 06:38:11;;;;;;;1.35;1.25;;;18.90;61.90;;;;;;5120400;27;44770;-57
2022/10/10 06:40:39;;;;;;;1.60;1.50;;;18.90;61.80;;;;;;5101948;27;46347;-57
2022/10/10 06:43:10;;;;;;;1.50;1.40;;;18.90;61.90;;;;;;5122761;27;43448;-57
2022/10/10 06:45:39;;;;;;;;;;;18.90;61.90;;;;;;5117879;27;43534;-57
2022/10/10 06:48:07;;;;;;;1.40;1.30;;;19.00;61.90;;;;;;5113183;27;44032;-57
2022/10/10 06:50:35;;;;;;;1.70;1.60;;;18.90;61.90;;;;;;5121624;27;43407;-58
2022/10/10 06:53:03;;;;;;;1.20;1.20;;;19.00;61.90;;;;;;5112133;27;43446;-57
2022/10/10 06:55:30;;;;;;;1.20;1.20;;;18.90;61.90;;;;;;5112153;27;43620;-57
2022/10/10 06:57:58;;;;;;;1.42;1.33;;;18.90;61.80;;;;;;5119073;27;45072;-57
2022/10/10 07:00:25;;;;;;;1.35;1.30;;;18.90;61.90;;;;;;5119430;27;44166;-57
2022/10/10 07:02:53;;;;;;;1.40;1.30;;;19.00;62.00;;;;;;5110950;27;43427;-57
2022/10/10 07:05:20;;;;;;;1.50;1.40;;;19.00;62.00;;;;;;5106720;27;43416;-57
2022/10/10 07:07:50;;;;;;;1.52;1.40;;;19.00;62.00;;;;;;5117679;27;44970;-58
2022/10/10 07:10:17;;;;;;;1.30;1.25;;;19.00;62.00;;;;;;5117718;27;43480;-58
2022/10/10 07:12:45;;;;;;;1.73;1.63;;;19.00;62.00;;;;;;5112906;27;43477;-57
2022/10/10 07:15:13;;;;;;;1.58;1.48;;;19.00;62.00;;;;;;5114647;27;43428;-57
2022/10/10 07:17:40;;;;;;;1.05;1.05;;;19.00;62.00;;;;;;5116972;27;44831;-58
2022/10/10 07:20:08;;;;;;;1.85;1.70;;;19.00;62.20;;;;;;5115091;27;43502;-58
2022/10/10 07:22:35;;;;;;;2.30;2.10;;;19.00;62.30;;;;;;5118681;27;43493;-58
2022/10/10 07:25:03;;;;;;;2.30;2.10;;;19.10;62.30;;;;;;5107398;27;43683;-58
2022/10/10 07:27:30;;;;;;;2.92;1.90;;;19.20;62.30;;;;;;5113863;27;43914;-58
2022/10/10 07:29:58;;;;;;;3.10;1.90;;;19.20;62.20;;;;;;5104274;27;43493;-57
2022/10/10 07:32:25;;;;;;;2.17;2.08;;;19.30;62.40;;;;;;5094090;27;43462;-58
2022/10/10 07:34:53;;;;;;;2.00;1.90;;;19.40;62.20;;;;;;5099048;27;43904;-58
2022/10/10 07:37:20;;;;;;;1.90;1.80;;;19.40;61.90;;;;;;5115201;27;44058;-58
2022/10/10 07:39:47;;;;;;;2.40;1.90;;;19.50;61.80;;;;;;5115718;27;43969;-57
2022/10/10 07:42:15;;;;;;;2.25;1.80;;;19.60;61.90;;;;;;5115864;27;43486;-59
2022/10/10 07:44:43;;;;;;;2.00;1.90;;;19.60;61.60;;;;;;5095813;27;43684;-59
2022/10/10 07:47:11;;;;;;;2.35;1.73;;;19.70;61.40;;;;;;5097684;27;43976;-57
2022/10/10 07:49:39;;;;;;;2.10;1.90;;;19.80;61.30;;;;;;5096159;27;43525;-58
2022/10/10 07:52:07;;;;;;;2.05;1.60;;;19.90;61.30;;;;;;5079421;27;43471;-58
2022/10/10 07:54:34;;;;;;;2.40;1.98;;;20.00;61.20;;;;;;5093278;27;43962;-58
2022/10/10 07:57:01;;;;;;;2.00;1.90;;;20.10;61.10;;;;;;5088870;27;43896;-58
2022/10/10 07:59:29;;;;;;;2.17;1.98;;;20.10;61.10;;;;;;5100244;27;44256;-59
2022/10/10 08:01:57;;;;;;;1.83;1.60;;;20.20;61.10;;;;;;5095350;27;43526;-58
2022/10/10 08:04:24;;;;;;;1.63;1.52;;;20.30;61.10;;;;;;5091989;27;43976;-58
2022/10/10 08:06:51;;;;;;;1.65;1.55;;;20.40;61.00;;;;;;5097511;27;44920;-58
2022/10/10 08:09:19;;;;;;;2.17;1.90;;;20.50;60.90;;;;;;5091073;27;43781;-58
2022/10/10 08:11:46;;;;;;;1.80;1.70;;;20.60;60.60;;;;;;5094424;27;43453;-57
2022/10/10 08:14:14;;;;;;;2.78;1.60;;;20.60;60.60;;;;;;5099235;27;43735;-57
2022/10/10 08:16:41;;;;;;;2.90;1.85;;;20.70;60.50;;;;;;5092510;27;44064;-57
2022/10/10 08:19:09;;;;;;;2.28;1.80;;;20.80;60.50;;;;;;5096881;27;43494;-58
2022/10/10 08:21:36;;;;;;;2.05;1.80;;;20.80;60.50;;;;;;5092127;27;43504;-58
2022/10/10 08:24:04;;;;;;;2.30;1.70;;;20.90;60.50;;;;;;5102345;27;43641;-58
2022/10/10 08:26:31;;;;;;;4.47;1.90;;;20.90;60.50;;;;;;5078374;27;45488;-58
2022/10/10 08:28:59;;;;;;;1.80;1.70;;;21.00;60.30;;;;;;5099470;27;43408;-59
2022/10/10 08:31:26;;;;;;;2.40;1.73;;;21.10;60.40;;;;;;5089455;27;43466;-58
2022/10/10 08:33:55;;;;;;;1.88;1.60;;;21.10;60.50;;;;;;5076981;27;43600;-57
2022/10/10 08:36:23;;;;;;;2.10;1.60;;;21.20;60.30;;;;;;5092783;27;44081;-57
2022/10/10 08:38:58;;;;;;;1.70;1.60;;;21.20;60.20;;;;;;5071683;28;43480;-58
2022/10/10 08:41:38;;;;;;;2.28;1.80;;;21.30;60.10;;;;;;5096456;27;43502;-57
2022/10/10 08:44:30;;;;;;;2.85;1.70;;;21.40;60.10;;;;;;5096857;27;43540;-58
2022/10/10 08:47:20;;;;;;;1.65;1.55;;;21.40;59.90;;;;;;5093525;27;43811;-57
2022/10/10 08:50:17;;;;;;;2.22;1.70;;;21.40;59.90;;;;;;5073203;27;43415;-57
2022/10/10 08:53:13;;;;;;;3.55;1.70;;;21.60;59.90;;;;;;5097217;27;43406;-58
2022/10/10 08:55:42;;;;;;;1.88;1.60;;;21.60;59.80;;;;;;5092679;27;43524;-58
2022/10/10 08:58:25;;;;;;;1.58;1.48;;;21.60;59.70;;;;;;5092007;27;43916;-58
2022/10/10 09:01:09;;;;;;;1.88;1.67;;;21.70;59.60;;;;;;5092715;27;43962;-57
2022/10/10 09:03:44;;;;;;;4.40;1.60;;;21.80;59.60;;;;;;5091570;27;43441;-58
2022/10/10 09:06:29;;;;;;;1.85;1.58;;;21.80;59.50;;;;;;5093401;27;43442;-58
2022/10/10 09:09:05;;;;;;;2.97;1.70;;;21.90;59.30;;;;;;5097104;27;43793;-57
2022/10/10 09:11:44;;;;;;;1.90;1.60;;;22.00;59.10;;;;;;5092833;27;43508;-58
2022/10/10 09:14:33;;;;;;;3.25;1.80;;;22.10;59.00;;;;;;5077510;27;43420;-58
2022/10/10 09:17:39;;;;;;;3.58;1.92;;;22.20;58.80;;;;;;5073991;27;43467;-58
2022/10/10 09:20:17;;;;;;;2.42;1.70;;;22.30;58.70;;;;;;5062250;27;44061;-58
2022/10/10 09:22:59;;;;;;;1.50;1.40;;;22.30;58.60;;;;;;5075183;27;43419;-57
2022/10/10 09:25:36;;;;;;;1.75;1.60;;;22.30;58.60;;;;;;5094051;27;43484;-58
2022/10/10 09:28:30;;;;;;;1.77;1.67;;;22.40;58.50;;;;;;5100944;27;43426;-57
2022/10/10 09:31:00;;;;;;;2.20;1.90;;;22.40;58.30;;;;;;5087817;27;44062;-57
2022/10/10 09:33:40;;;;;;;2.92;1.58;;;22.40;58.30;;;;;;5094068;27;43784;-58
2022/10/10 09:36:13;;;;;;;1.80;1.70;;;22.50;58.30;;;;;;5078459;27;43510;-58
2022/10/10 09:38:43;;;;;;;1.60;1.50;;;22.50;58.40;;;;;;5097398;27;43515;-57
2022/10/10 09:41:13;;;;;;;1.50;1.40;;;22.50;58.90;;;;;;5099334;27;45088;-58
2022/10/10 09:43:41;;;;;;;1.77;1.65;;;22.50;58.30;;;;;;5098981;27;43986;-57
2022/10/10 09:46:08;;;;;;;2.60;1.48;;;22.50;58.30;;;;;;5103639;27;43416;-57
2022/10/10 09:48:42;;;;;;;1.58;1.48;;;22.50;58.50;;;;;;5120309;27;43636;-57
2022/10/10 09:51:16;;;;;;;2.53;1.70;;;22.50;58.40;;;;;;5119881;27;43902;-57
2022/10/10 09:53:45;;;;;;;1.70;1.60;;;22.50;58.50;;;;;;5112214;27;43450;-58
2022/10/10 09:56:29;;;;;;;1.65;1.50;;;22.50;58.50;;;;;;5120977;27;43430;-58
2022/10/10 09:58:57;;;;;;;2.17;1.67;;;22.50;58.60;;;;;;5113317;27;43540;-57
2022/10/10 10:01:27;;;;;;;1.83;1.55;;;22.50;58.60;;;;;;5114772;27;43775;-57
2022/10/10 10:04:13;;;;;;;1.75;1.50;;;22.50;58.60;;;;;;5116822;27;43966;-59
2022/10/10 10:07:25;;;;;;;;;;;22.50;58.60;;;;;;5117392;27;43555;-58
2022/10/10 10:10:01;;;;;;;2.45;1.75;;;22.40;58.60;;;;;;5088639;27;43727;-58
2022/10/10 10:12:43;;;;;;;1.98;1.70;;;22.40;58.70;;;;;;5095784;27;44758;-59
2022/10/10 10:15:24;;;;;;;1.98;1.73;;;22.40;58.80;;;;;;5110687;27;43522;-59
2022/10/10 10:18:15;;;;;;;2.67;1.65;;;22.40;58.70;;;;;;5112118;27;43432;-59
2022/10/10 10:20:46;;;;;;;1.77;1.63;;;22.40;58.80;;;;;;5102480;27;43435;-59
2022/10/10 10:23:48;;;;;;;2.13;1.80;;;22.40;59.00;;;;;;5098998;27;44017;-60
2022/10/10 10:26:20;;;;;;;1.63;1.48;;;22.40;58.90;;;;;;5098868;27;43482;-59
2022/10/10 10:28:50;;;;;;;1.80;1.70;;;22.40;59.00;;;;;;5118227;27;43442;-59
2022/10/10 10:31:26;;;;;;;2.05;1.70;;;22.30;58.90;;;;;;5121556;27;43588;-58
2022/10/10 10:34:09;;;;;;;1.65;1.48;;;22.40;59.10;;;;;;5115934;27;45293;-59
2022/10/10 10:36:53;;;;;;;2.08;1.70;;;22.30;59.00;;;;;;5120437;27;43454;-59
2022/10/10 10:39:53;;;;;;;1.90;1.80;;;22.30;59.10;;;;;;5122001;27;43408;-59
2022/10/10 10:42:26;;;;;;;1.67;1.58;;;22.30;59.20;;;;;;5096894;27;43577;-56
2022/10/10 10:45:13;;;;;;;3.35;2.17;;;22.30;59.20;;;;;;5118283;27;44035;-56
2022/10/10 10:47:44;;;;;;;2.15;1.50;;;22.30;59.20;;;;;;5114208;27;43427;-56
2022/10/10 10:50:24;;;;;;;1.58;1.48;;;22.30;59.20;;;;;;5119097;27;43337;-56
2022/10/10 10:52:59;;;;;;;2.45;1.55;;;22.30;59.20;;;;;;5100151;27;43532;-57
2022/10/10 10:55:40;;;;;;;3.35;1.92;;;22.30;59.30;;;;;;5118295;27;43810;-56
2022/10/10 10:58:25;;;;;;;1.65;1.48;;;22.30;59.30;;;;;;5114702;27;43437;-56
2022/10/10 11:01:26;;;;;;;1.80;1.60;;;22.30;59.30;;;;;;5112612;27;43592;-56
2022/10/10 11:04:22;;;;;;;2.53;1.43;;;22.30;59.40;;;;;;5096429;27;43701;-56
2022/10/10 11:07:23;;;;;;;3.03;1.98;;;22.30;59.40;;;;;;5113485;27;44985;-56
2022/10/10 11:10:01;;;;;;;1.90;1.70;;;22.30;59.50;;;;;;5120570;27;44074;-58
2022/10/10 11:13:18;;;;;;;2.05;1.85;;;22.30;59.50;;;;;;5096011;27;43499;-57
2022/10/10 11:16:10;;;;;;;3.33;2.00;;;22.30;59.60;;;;;;5103950;27;43462;-58
2022/10/10 11:19:09;;;;;;;1.75;1.60;;;22.20;59.60;;;;;;5116793;27;45285;-57
2022/10/10 11:21:48;;;;;;;2.00;1.63;;;22.20;59.60;;;;;;5119025;27;43980;-57
2022/10/10 11:24:31;;;;;;;1.92;1.70;;;22.20;59.60;;;;;;5097076;27;43468;-58
2022/10/10 11:27:03;;;;;;;1.73;1.60;;;22.20;59.60;;;;;;5117134;27;43950;-57
2022/10/10 11:29:48;;;;;;;2.58;1.80;;;22.20;59.70;;;;;;5113558;27;43745;-57
2022/10/10 11:32:23;;;;;;;2.25;1.60;;;22.20;59.70;;;;;;5114836;27;43451;-57
2022/10/10 11:35:12;;;;;;;1.75;1.65;;;22.20;59.80;;;;;;5115979;27;43608;-57
2022/10/10 11:37:45;;;;;;;2.10;1.88;;;22.20;59.90;;;;;;5115511;27;43492;-56
2022/10/10 11:40:49;;;;;;;2.05;1.80;;;22.20;59.90;;;;;;5114611;27;44725;-56
2022/10/10 11:43:33;;;;;;;1.50;1.40;;;22.20;59.90;;;;;;5117103;27;43944;-57
2022/10/10 11:46:27;;;;;;;1.85;1.70;;;22.20;60.00;;;;;;5098297;27;43523;-57
2022/10/10 11:49:37;;;;;;;3.25;2.10;;;22.20;60.00;;;;;;5118845;27;43904;-56
2022/10/10 11:52:32;;;;;;;2.10;1.67;;;22.20;60.00;;;;;;5107691;27;45275;-57
2022/10/10 11:55:42;;;;;;;1.80;1.58;;;22.20;60.00;;;;;;5120784;27;43450;-57
2022/10/10 11:58:10;;;;;;;2.58;1.98;;;22.10;60.00;;;;;;5075141;27;43493;-57
2022/10/10 12:00:58;;;;;;;1.98;1.77;;;22.10;60.10;;;;;;5111520;27;44008;-57
2022/10/10 12:03:25;;;;;;;1.90;1.80;;;22.10;60.10;;;;;;5121541;27;44794;-57
2022/10/10 12:06:17;;;;;;;2.13;1.90;;;22.10;60.10;;;;;;5116572;27;43491;-57
2022/10/10 12:08:55;;;;;;;2.25;2.10;;;22.10;60.10;;;;;;5113924;27;43488;-57
2022/10/10 12:11:42;;;;;;;2.00;1.80;;;22.10;60.10;;;;;;5118970;27;43525;-57
2022/10/10 12:14:15;;;;;;;2.55;1.98;;;22.10;60.00;;;;;;5115949;27;44967;-57
2022/10/10 12:16:43;;;;;;;2.75;1.77;;;22.10;60.10;;;;;;5114465;27;43510;-57
2022/10/10 12:19:22;;;;;;;2.45;2.00;;;22.10;60.00;;;;;;5111265;27;43643;-57
2022/10/10 12:21:55;;;;;;;2.25;2.10;;;22.10;60.10;;;;;;5115349;27;43491;-57
2022/10/10 12:24:25;;;;;;;1.98;1.75;;;22.10;60.00;;;;;;5114436;27;44663;-57
2022/10/10 12:26:55;;;;;;;2.00;1.90;;;22.10;60.00;;;;;;5114745;27;43478;-56
2022/10/10 12:29:38;;;;;;;2.00;1.73;;;22.10;60.00;;;;;;5114254;27;43420;-56
2022/10/10 12:32:16;;;;;;;2.00;1.80;;;22.10;60.00;;;;;;5117055;27;43365;-56
2022/10/10 12:34:46;;;;;;;2.17;1.98;;;22.10;60.00;;;;;;5112959;27;44755;-57
2022/10/10 12:37:22;;;;;;;2.20;2.00;;;22.10;60.00;;;;;;5116465;27;43470;-57
2022/10/10 12:40:04;;;;;;;2.22;2.03;;;22.10;60.00;;;;;;5118767;27;43493;-57
2022/10/10 12:42:59;;;;;;;2.25;1.80;;;22.10;60.10;;;;;;5119385;27;43517;-57
2022/10/10 12:45:30;;;;;;;3.83;2.05;;;22.10;60.10;;;;;;5109097;27;44944;-57
2022/10/10 12:48:03;;;;;;;2.22;2.05;;;22.00;60.00;;;;;;5117230;27;43981;-56
2022/10/10 12:50:41;;;;;;;2.08;1.98;;;22.00;60.10;;;;;;5120525;27;43384;-57
2022/10/10 12:53:11;;;;;;;2.58;1.65;;;22.00;60.10;;;;;;5116281;27;43528;-57
2022/10/10 12:55:43;;;;;;;2.23;2.00;;;22.10;60.10;;;;;;5114468;27;45909;-57
2022/10/10 12:58:27;;;;;;;2.78;2.15;;;22.00;60.10;;;;;;5116975;27;43457;-57
2022/10/10 13:00:58;;;;;;;2.10;2.00;;;22.00;60.20;;;;;;5115715;27;43474;-58
2022/10/10 13:03:35;;;;;;;2.33;2.13;;;22.10;60.30;;;;;;5116163;27;43567;-57
2022/10/10 13:06:21;;;;;;;3.28;2.00;;;22.00;60.20;;;;;;5118672;27;43917;-57
2022/10/10 13:08:52;;;;;;;3.78;1.88;;;22.00;60.20;;;;;;5118903;27;43482;-57
2022/10/10 13:11:19;;;;;;;2.40;2.20;;;22.00;60.30;;;;;;5122841;27;43540;-57
2022/10/10 13:13:55;;;;;;;2.80;2.17;;;22.00;60.30;;;;;;5115032;27;43627;-58
2022/10/10 13:16:25;;;;;;;2.30;2.10;;;22.00;60.30;;;;;;5115282;27;44145;-57
2022/10/10 13:19:00;;;;;;;2.63;2.15;;;22.00;60.30;;;;;;5117992;27;43475;-58
2022/10/10 13:21:33;;;;;;;2.25;2.08;;;22.00;60.30;;;;;;5118124;27;43491;-57